Time;durP1;ratioP1;P1;durP2;ratioP2;P2;SDS_P1;SDS_P2;PMS_P1;PMS_P2;Temp;Humidity;BMP_temperature;BMP_pressure;BME280_temperature;BME280_humidity;BME280_pressure;Samples;Min_cycle;Max_cycle;Signal;HPM_P1;HPM_P2
2022/11/02 06:00:26;;;;;;;3.63;1.83;;;11.90;97.20;;;;;;1655927;29;20188;-72
2022/11/02 06:01:17;;;;;;;9.52;2.63;;;11.90;97.20;;;;;;1655907;29;20212;-73
2022/11/02 06:02:09;;;;;;;4.60;2.30;;;11.90;97.20;;;;;;1655901;29;20667;-73
2022/11/02 06:02:59;;;;;;;4.40;1.95;;;11.90;97.20;;;;;;1655941;29;20212;-72
2022/11/02 06:03:51;;;;;;;5.10;1.93;;;11.90;97.20;;;;;;1655624;29;20210;-73
2022/11/02 06:04:42;;;;;;;4.40;1.95;;;11.90;97.20;;;;;;1655935;29;20591;-72
2022/11/02 06:05:34;;;;;;;10.13;2.27;;;11.90;97.20;;;;;;1655809;29;20207;-72
2022/11/02 06:06:24;;;;;;;6.63;1.85;;;11.90;97.20;;;;;;1655874;29;20212;-73
2022/11/02 06:07:16;;;;;;;5.07;2.07;;;11.90;97.20;;;;;;1655801;29;20311;-73
2022/11/02 06:08:07;;;;;;;4.50;2.10;;;11.90;97.20;;;;;;1655935;29;20671;-73
2022/11/02 06:08:59;;;;;;;2.10;1.90;;;11.90;97.20;;;;;;1655944;29;20557;-72
2022/11/02 06:09:49;;;;;;;8.20;2.80;;;11.90;97.20;;;;;;1655871;29;20220;-73
2022/11/02 06:10:42;;;;;;;4.40;1.80;;;11.90;97.20;;;;;;1655858;29;20232;-72
2022/11/02 06:11:32;;;;;;;7.47;2.00;;;11.90;97.20;;;;;;1655879;29;20649;-72
2022/11/02 06:12:24;;;;;;;3.97;1.90;;;11.90;97.20;;;;;;1655864;29;20216;-73
2022/11/02 06:13:15;;;;;;;3.80;1.88;;;11.90;97.20;;;;;;1655847;29;20214;-73
2022/11/02 06:14:07;;;;;;;5.30;2.27;;;11.90;97.20;;;;;;1655603;29;20231;-72
2022/11/02 06:14:57;;;;;;;7.03;2.00;;;11.90;97.20;;;;;;1655871;29;20211;-73
2022/11/02 06:15:50;;;;;;;4.37;1.77;;;11.90;97.20;;;;;;1655746;29;20214;-72
2022/11/02 06:16:41;;;;;;;4.78;2.13;;;11.90;97.20;;;;;;1654198;29;20559;-74
2022/11/02 06:17:37;;;;;;;4.83;1.70;;;11.90;97.20;;;;;;1651391;29;20200;-73
2022/11/02 06:18:28;;;;;;;4.93;2.17;;;11.90;97.20;;;;;;1649527;29;20227;-72
2022/11/02 06:19:20;;;;;;;5.00;2.20;;;11.90;97.20;;;;;;1649678;29;20208;-72
2022/11/02 06:20:11;;;;;;;4.07;2.00;;;11.90;97.20;;;;;;1649765;29;20458;-72
2022/11/02 06:21:03;;;;;;;5.20;2.25;;;11.90;97.20;;;;;;1649781;29;20288;-73
2022/11/02 06:21:53;;;;;;;7.88;2.80;;;11.90;97.20;;;;;;1649686;29;20219;-72
2022/11/02 06:22:45;;;;;;;4.30;2.20;;;11.90;97.20;;;;;;1649694;29;20205;-72
2022/11/02 06:23:37;;;;;;;7.60;2.60;;;11.90;97.20;;;;;;1649687;29;20215;-72
2022/11/02 06:24:29;;;;;;;6.05;2.65;;;11.90;97.20;;;;;;1649454;29;20224;-72
2022/11/02 06:25:20;;;;;;;6.35;2.38;;;11.90;97.20;;;;;;1649622;29;20205;-73
2022/11/02 06:26:12;;;;;;;5.10;2.00;;;11.80;97.20;;;;;;1649684;29;20219;-72
2022/11/02 06:27:03;;;;;;;3.63;1.90;;;11.80;97.20;;;;;;1649675;29;20220;-72
2022/11/02 06:27:56;;;;;;;6.30;2.40;;;11.80;97.20;;;;;;1649721;29;20209;-73
2022/11/02 06:28:47;;;;;;;5.78;2.00;;;11.80;97.20;;;;;;1649665;29;20715;-73
2022/11/02 06:29:39;;;;;;;6.33;2.10;;;11.80;97.20;;;;;;1649735;29;20610;-73
2022/11/02 06:30:30;;;;;;;4.35;2.08;;;11.90;97.20;;;;;;1652368;29;20200;-73
2022/11/02 06:31:23;;;;;;;3.97;1.90;;;11.80;97.20;;;;;;1629133;29;1026405;-72
2022/11/02 06:32:13;;;;;;;5.00;2.15;;;11.80;97.20;;;;;;1662156;29;20212;-72
2022/11/02 06:33:05;;;;;;;4.40;1.97;;;11.80;97.20;;;;;;1662134;29;20678;-72
2022/11/02 06:33:56;;;;;;;4.97;1.80;;;11.80;97.20;;;;;;1661886;29;20226;-72
2022/11/02 06:34:47;;;;;;;5.40;2.03;;;11.80;97.20;;;;;;1662086;29;20235;-72
2022/11/02 06:35:38;;;;;;;5.30;2.15;;;11.80;97.20;;;;;;1662099;29;20210;-73
2022/11/02 06:36:30;;;;;;;5.03;2.00;;;11.90;97.20;;;;;;1662100;29;20214;-72
2022/11/02 06:37:21;;;;;;;7.25;2.00;;;11.90;97.20;;;;;;1662113;29;20212;-72
2022/11/02 06:38:12;;;;;;;4.32;2.22;;;11.90;97.20;;;;;;1662066;29;20220;-73
2022/11/02 06:39:04;;;;;;;4.47;1.70;;;11.90;97.20;;;;;;1662190;29;20215;-73
2022/11/02 06:39:54;;;;;;;4.75;1.48;;;11.90;97.20;;;;;;1662137;29;20460;-72
2022/11/02 06:40:53;;;;;;;7.27;2.37;;;11.90;97.20;;;;;;1662024;29;20894;-72
2022/11/02 06:41:44;;;;;;;5.43;1.95;;;12.00;97.20;;;;;;1662127;29;20263;-73
2022/11/02 06:42:36;;;;;;;5.27;2.10;;;12.00;97.20;;;;;;1662226;29;20256;-73
2022/11/02 06:43:26;;;;;;;4.90;1.77;;;12.00;97.20;;;;;;1663201;29;20207;-73
2022/11/02 06:44:18;;;;;;;3.87;1.80;;;12.10;97.20;;;;;;1662915;29;20670;-73
2022/11/02 06:45:09;;;;;;;4.50;1.60;;;12.00;97.20;;;;;;1663139;29;20578;-72
2022/11/02 06:46:01;;;;;;;5.72;2.20;;;12.10;97.20;;;;;;1664171;29;20203;-74
2022/11/02 06:46:53;;;;;;;4.43;1.80;;;12.10;97.20;;;;;;1663088;29;20215;-72
2022/11/02 06:47:45;;;;;;;5.85;2.00;;;12.10;97.20;;;;;;1663281;29;20442;-72
2022/11/02 06:48:35;;;;;;;4.97;1.80;;;12.10;97.20;;;;;;1663150;29;20208;-73
2022/11/02 06:49:27;;;;;;;6.50;1.57;;;12.20;97.20;;;;;;1663191;29;20211;-73
2022/11/02 06:50:18;;;;;;;5.68;2.25;;;12.20;97.20;;;;;;1663157;29;20585;-72
2022/11/02 06:51:09;;;;;;;4.20;1.70;;;12.20;97.20;;;;;;1663180;29;20582;-72
2022/11/02 06:52:00;;;;;;;4.10;2.13;;;12.20;97.20;;;;;;1663239;29;20218;-73
2022/11/02 06:52:52;;;;;;;6.07;1.90;;;12.20;97.20;;;;;;1663213;29;20311;-73
2022/11/02 06:53:43;;;;;;;12.02;2.90;;;12.20;97.20;;;;;;1662971;29;20219;-72
2022/11/02 06:54:35;;;;;;;10.03;2.80;;;12.30;97.20;;;;;;1662905;29;20218;-72
2022/11/02 06:55:25;;;;;;;5.00;2.40;;;12.30;97.20;;;;;;1663036;29;20208;-72
2022/11/02 06:56:17;;;;;;;6.10;2.33;;;12.30;97.20;;;;;;1663184;29;20238;-72
2022/11/02 06:57:08;;;;;;;6.05;2.00;;;12.30;97.20;;;;;;1663066;29;20215;-72
2022/11/02 06:57:59;;;;;;;3.33;2.10;;;12.30;97.20;;;;;;1663203;29;20211;-72
2022/11/02 06:58:50;;;;;;;5.55;2.22;;;12.30;97.20;;;;;;1666444;29;20400;-72
2022/11/02 06:59:42;;;;;;;9.30;2.60;;;12.40;97.20;;;;;;1669439;29;20224;-73
2022/11/02 07:00:32;;;;;;;3.60;2.40;;;12.30;97.20;;;;;;1669326;29;20245;-73
2022/11/02 07:01:24;;;;;;;4.00;2.40;;;12.40;97.20;;;;;;1669407;29;20309;-73
2022/11/02 07:02:16;;;;;;;9.98;2.00;;;12.40;97.20;;;;;;1669451;29;20207;-73
2022/11/02 07:03:10;;;;;;;4.43;2.45;;;12.40;97.20;;;;;;1669444;29;20218;-73
2022/11/02 07:04:01;;;;;;;11.10;2.17;;;12.40;97.20;;;;;;1669178;29;20210;-72
2022/11/02 07:04:53;;;;;;;7.23;1.97;;;12.40;97.20;;;;;;1669384;29;20206;-72
2022/11/02 07:05:49;;;;;;;7.40;2.50;;;12.40;97.20;;;;;;1669344;29;20840;-73
2022/11/02 07:06:41;;;;;;;3.40;1.85;;;12.40;97.20;;;;;;1669432;29;20210;-73
2022/11/02 07:07:32;;;;;;;6.15;2.15;;;12.40;97.20;;;;;;1669368;29;20697;-73
2022/11/02 07:08:24;;;;;;;5.00;2.13;;;12.40;97.20;;;;;;1669251;29;20766;-73
2022/11/02 07:09:15;;;;;;;4.60;1.70;;;12.40;97.20;;;;;;1668864;29;20214;-73
2022/11/02 07:10:09;;;;;;;5.47;2.07;;;12.50;97.20;;;;;;1668832;29;20236;-73
2022/11/02 07:11:00;;;;;;;6.38;1.92;;;12.50;97.20;;;;;;1669080;29;20475;-73
2022/11/02 07:11:51;;;;;;;6.33;2.13;;;12.50;97.20;;;;;;1669085;29;20206;-73
2022/11/02 07:12:42;;;;;;;7.15;2.13;;;12.50;97.20;;;;;;1668582;29;20665;-72
2022/11/02 07:13:34;;;;;;;3.87;1.67;;;12.50;97.20;;;;;;1668876;29;20687;-73
2022/11/02 07:14:24;;;;;;;3.67;1.63;;;12.50;97.20;;;;;;1668810;29;20257;-73
2022/11/02 07:15:17;;;;;;;4.73;1.83;;;12.50;97.20;;;;;;1669025;29;20206;-73
2022/11/02 07:16:07;;;;;;;6.80;1.90;;;12.50;97.20;;;;;;1669136;29;20266;-73
2022/11/02 07:16:59;;;;;;;6.17;1.73;;;12.50;97.20;;;;;;1669088;29;20207;-73
2022/11/02 07:17:52;;;;;;;5.22;2.00;;;12.50;97.20;;;;;;1668728;29;20700;-73
2022/11/02 07:18:43;;;;;;;4.78;1.90;;;12.50;97.20;;;;;;1668578;29;20210;-73
2022/11/02 07:19:34;;;;;;;3.95;2.08;;;12.60;97.20;;;;;;1668462;29;20210;-73
2022/11/02 07:20:26;;;;;;;7.13;2.70;;;12.60;97.20;;;;;;1669003;29;20213;-74
2022/11/02 07:21:17;;;;;;;4.85;1.98;;;12.60;97.20;;;;;;1669154;29;20214;-72
2022/11/02 07:22:09;;;;;;;3.20;2.43;;;12.60;97.20;;;;;;1669012;29;20211;-73
2022/11/02 07:23:01;;;;;;;6.13;1.98;;;12.60;97.20;;;;;;1668726;29;20218;-73
2022/11/02 07:23:52;;;;;;;5.03;1.80;;;12.60;97.20;;;;;;1669096;29;20245;-73
2022/11/02 07:24:43;;;;;;;7.43;2.78;;;12.60;97.20;;;;;;1669332;29;20222;-73
2022/11/02 07:25:35;;;;;;;5.10;1.77;;;12.60;97.20;;;;;;1669274;29;20206;-74
2022/11/02 07:26:26;;;;;;;5.78;1.63;;;12.70;97.20;;;;;;1669024;29;20210;-72
2022/11/02 07:27:19;;;;;;;5.77;1.90;;;12.70;97.20;;;;;;1669351;29;20669;-72
2022/11/02 07:28:10;;;;;;;7.05;2.20;;;12.70;97.20;;;;;;1664661;29;20836;-73
2022/11/02 07:29:01;;;;;;;5.47;2.13;;;12.70;97.20;;;;;;1663015;29;20258;-73
2022/11/02 07:29:52;;;;;;;7.63;2.00;;;12.70;97.20;;;;;;1662918;29;20607;-72
2022/11/02 07:30:44;;;;;;;3.53;1.63;;;12.80;97.20;;;;;;1668840;29;20242;-73
2022/11/02 07:31:35;;;;;;;3.67;1.80;;;12.80;97.20;;;;;;1681934;29;20213;-73
2022/11/02 07:32:26;;;;;;;4.00;1.47;;;12.80;97.20;;;;;;1682036;29;20208;-74
2022/11/02 07:33:18;;;;;;;2.78;1.77;;;12.80;97.20;;;;;;1682099;29;20554;-73
2022/11/02 07:34:10;;;;;;;6.90;2.17;;;12.80;97.20;;;;;;1681642;29;20392;-73
2022/11/02 07:35:01;;;;;;;6.85;1.83;;;12.80;97.20;;;;;;1682105;29;20702;-73
2022/11/02 07:35:53;;;;;;;7.23;2.00;;;12.90;97.20;;;;;;1681954;29;20573;-73
2022/11/02 07:36:44;;;;;;;4.70;1.73;;;12.90;97.20;;;;;;1681930;29;20825;-72
2022/11/02 07:37:36;;;;;;;6.22;1.77;;;12.90;97.20;;;;;;1681950;29;20637;-73
2022/11/02 07:38:27;;;;;;;9.23;2.15;;;12.90;97.20;;;;;;1682002;29;20679;-72
2022/11/02 07:39:19;;;;;;;5.17;2.40;;;12.90;97.20;;;;;;1681946;29;20660;-73
2022/11/02 07:40:12;;;;;;;5.55;2.40;;;12.90;97.20;;;;;;1681967;29;20215;-73
2022/11/02 07:41:04;;;;;;;6.88;1.75;;;12.90;97.20;;;;;;1682042;29;20466;-73
2022/11/02 07:41:55;;;;;;;4.30;1.80;;;12.90;97.20;;;;;;1681933;29;20220;-72
2022/11/02 07:42:47;;;;;;;5.23;2.20;;;12.90;97.20;;;;;;1682058;29;20208;-73
2022/11/02 07:43:37;;;;;;;7.25;1.90;;;12.90;97.20;;;;;;1683181;29;20209;-72
2022/11/02 07:44:29;;;;;;;5.40;2.10;;;12.90;97.20;;;;;;1688049;29;20200;-73
2022/11/02 07:45:21;;;;;;;8.65;2.45;;;12.90;97.20;;;;;;1688247;29;20304;-73
2022/11/02 07:46:12;;;;;;;5.35;1.80;;;12.90;97.20;;;;;;1688315;29;20200;-72
2022/11/02 07:47:04;;;;;;;5.93;1.90;;;12.90;97.20;;;;;;1688378;29;20212;-73
2022/11/02 07:47:55;;;;;;;8.73;1.70;;;12.90;97.20;;;;;;1688480;29;20228;-73
2022/11/02 07:48:48;;;;;;;3.63;1.93;;;13.00;97.20;;;;;;1688334;29;20220;-73
2022/11/02 07:49:39;;;;;;;4.65;1.52;;;13.00;97.20;;;;;;1688350;29;20213;-73
2022/11/02 07:50:30;;;;;;;6.00;2.27;;;13.00;97.20;;;;;;1688266;29;20207;-72
2022/11/02 07:51:22;;;;;;;3.20;1.52;;;13.00;97.20;;;;;;1688402;29;20208;-73
2022/11/02 07:52:13;;;;;;;6.80;1.55;;;13.00;97.20;;;;;;1688347;29;20211;-73
2022/11/02 07:53:05;;;;;;;6.10;1.97;;;13.00;97.20;;;;;;1688450;29;20216;-73
2022/11/02 07:53:55;;;;;;;5.70;2.03;;;13.00;97.20;;;;;;1687770;29;20459;-72
2022/11/02 07:54:47;;;;;;;5.13;1.97;;;13.00;97.20;;;;;;1688218;29;20239;-73
2022/11/02 07:55:39;;;;;;;3.95;1.90;;;13.00;97.20;;;;;;1688394;29;20211;-73
2022/11/02 07:56:31;;;;;;;4.47;1.92;;;13.10;97.20;;;;;;1688320;29;20200;-73
2022/11/02 07:57:21;;;;;;;5.78;1.90;;;13.10;97.20;;;;;;1688303;29;20263;-72
2022/11/02 07:58:13;;;;;;;5.40;2.40;;;13.10;97.20;;;;;;1688252;29;20209;-74
2022/11/02 07:59:04;;;;;;;6.38;2.03;;;13.10;97.20;;;;;;1686995;29;20303;-73
2022/11/02 07:59:56;;;;;;;8.50;2.83;;;13.10;97.20;;;;;;1687970;29;20211;-72
2022/11/02 08:00:46;;;;;;;7.47;2.10;;;13.20;97.20;;;;;;1688178;29;20809;-73
2022/11/02 08:01:38;;;;;;;8.70;2.00;;;13.20;97.20;;;;;;1688256;29;20691;-73
2022/11/02 08:02:29;;;;;;;5.68;1.50;;;13.20;97.20;;;;;;1688281;29;20667;-73
2022/11/02 08:03:21;;;;;;;5.83;1.93;;;13.20;97.20;;;;;;1688268;29;20651;-72
2022/11/02 08:04:13;;;;;;;4.85;2.10;;;13.30;97.20;;;;;;1688148;29;20204;-72
2022/11/02 08:05:05;;;;;;;4.30;1.65;;;13.30;97.20;;;;;;1688319;29;20220;-72
2022/11/02 08:06:00;;;;;;;6.45;1.77;;;13.30;97.20;;;;;;1688365;29;20742;-71
2022/11/02 08:06:52;;;;;;;4.40;2.03;;;13.40;97.20;;;;;;1688154;29;20201;-72
2022/11/02 08:07:43;;;;;;;4.28;1.90;;;13.50;97.20;;;;;;1688309;29;20201;-72
2022/11/02 08:08:36;;;;;;;5.77;2.40;;;13.50;97.20;;;;;;1688239;29;20702;-72
2022/11/02 08:09:27;;;;;;;5.70;1.90;;;13.60;97.20;;;;;;1688282;29;20200;-72
2022/11/02 08:10:19;;;;;;;7.17;2.03;;;13.60;97.20;;;;;;1688146;29;20201;-72
2022/11/02 08:11:09;;;;;;;3.85;1.77;;;13.60;97.20;;;;;;1688265;29;20215;-72
2022/11/02 08:12:01;;;;;;;6.90;1.90;;;13.70;97.20;;;;;;1688204;29;20214;-72
2022/11/02 08:12:52;;;;;;;6.10;2.20;;;13.70;97.20;;;;;;1688286;29;20209;-72
2022/11/02 08:13:44;;;;;;;6.07;1.83;;;13.70;97.20;;;;;;1688234;29;20204;-72
2022/11/02 08:14:34;;;;;;;11.73;2.50;;;13.70;97.20;;;;;;1687914;29;20455;-72
2022/11/02 08:15:26;;;;;;;4.10;1.80;;;13.80;97.20;;;;;;1684839;29;20239;-72
2022/11/02 08:16:18;;;;;;;9.52;1.52;;;13.80;97.20;;;;;;1681882;29;20202;-72
2022/11/02 08:17:09;;;;;;;6.00;2.10;;;13.80;97.20;;;;;;1681816;29;20209;-73
2022/11/02 08:18:01;;;;;;;4.87;1.73;;;13.90;97.20;;;;;;1682044;29;20233;-72
2022/11/02 08:18:52;;;;;;;4.97;1.60;;;13.90;97.20;;;;;;1681915;29;20291;-71
2022/11/02 08:19:45;;;;;;;7.80;2.50;;;13.90;97.20;;;;;;1681818;29;20294;-72
2022/11/02 08:20:37;;;;;;;2.97;1.60;;;13.90;97.20;;;;;;1681780;29;20608;-72
2022/11/02 08:21:28;;;;;;;3.67;1.67;;;13.90;97.20;;;;;;1681812;29;20202;-72
2022/11/02 08:22:19;;;;;;;3.30;1.40;;;13.90;97.20;;;;;;1681802;29;20205;-72
2022/11/02 08:23:10;;;;;;;3.90;1.50;;;14.00;97.20;;;;;;1681696;29;20216;-72
2022/11/02 08:24:02;;;;;;;6.07;2.10;;;14.00;97.20;;;;;;1681493;29;20201;-72
2022/11/02 08:24:53;;;;;;;4.45;1.85;;;14.00;97.20;;;;;;1681710;29;20445;-71
2022/11/02 08:25:47;;;;;;;4.23;1.70;;;14.10;97.20;;;;;;1681705;29;20209;-72
2022/11/02 08:26:38;;;;;;;5.03;1.88;;;14.10;97.20;;;;;;1681715;29;20684;-73
2022/11/02 08:27:29;;;;;;;8.07;2.10;;;14.10;97.20;;;;;;1681759;29;20206;-73
2022/11/02 08:28:24;;;;;;;5.77;1.50;;;14.20;97.20;;;;;;1681822;29;20205;-72
2022/11/02 08:29:15;;;;;;;7.50;1.95;;;14.20;97.20;;;;;;1681628;29;20450;-72
2022/11/02 08:30:07;;;;;;;3.65;2.05;;;14.30;97.20;;;;;;1681711;29;20216;-72
2022/11/02 08:30:59;;;;;;;4.07;1.35;;;14.30;97.20;;;;;;1683510;29;20224;-72
2022/11/02 08:31:50;;;;;;;4.47;1.90;;;14.30;97.20;;;;;;1677287;29;20221;-72
2022/11/02 08:32:42;;;;;;;7.40;2.10;;;14.30;97.20;;;;;;1675179;29;20194;-72
2022/11/02 08:33:33;;;;;;;10.20;2.90;;;14.40;97.20;;;;;;1675101;29;20206;-72
2022/11/02 08:34:24;;;;;;;3.28;1.50;;;14.40;97.20;;;;;;1674968;29;20210;-72
2022/11/02 08:35:17;;;;;;;4.13;1.77;;;14.40;97.20;;;;;;1675208;29;20210;-72
2022/11/02 08:36:09;;;;;;;4.18;1.73;;;14.40;97.20;;;;;;1675350;29;20213;-72
2022/11/02 08:37:01;;;;;;;8.60;2.20;;;14.50;97.20;;;;;;1675242;29;20210;-73
2022/11/02 08:37:56;;;;;;;4.05;1.70;;;14.50;97.20;;;;;;1675230;29;20206;-73
2022/11/02 08:38:48;;;;;;;7.18;1.75;;;14.50;97.20;;;;;;1675235;29;20240;-72
2022/11/02 08:39:39;;;;;;;6.57;1.60;;;14.50;97.20;;;;;;1675267;29;20210;-72
2022/11/02 08:40:31;;;;;;;5.90;1.70;;;14.60;97.20;;;;;;1675289;29;20241;-73
2022/11/02 08:41:22;;;;;;;5.80;1.38;;;14.60;97.20;;;;;;1675330;29;20202;-73
2022/11/02 08:42:13;;;;;;;5.80;1.70;;;14.70;97.20;;;;;;1675211;29;20216;-71
2022/11/02 08:43:06;;;;;;;5.22;1.40;;;14.70;97.20;;;;;;1675215;29;20642;-72
2022/11/02 08:43:58;;;;;;;4.28;1.70;;;14.70;97.20;;;;;;1674881;29;20587;-73
2022/11/02 08:44:49;;;;;;;3.38;1.23;;;14.80;97.20;;;;;;1675312;29;20202;-72
2022/11/02 08:45:42;;;;;;;4.07;1.87;;;14.80;97.20;;;;;;1675170;29;20660;-73
2022/11/02 08:46:33;;;;;;;3.83;1.40;;;14.80;97.20;;;;;;1675162;29;20221;-72
2022/11/02 08:47:25;;;;;;;4.10;1.40;;;14.90;97.20;;;;;;1675206;29;20210;-73
2022/11/02 08:48:15;;;;;;;5.78;1.40;;;14.90;97.20;;;;;;1675208;29;20213;-72
2022/11/02 08:49:07;;;;;;;4.73;1.67;;;14.90;97.20;;;;;;1675117;29;20216;-71
2022/11/02 08:49:58;;;;;;;5.68;2.05;;;14.90;97.20;;;;;;1675135;29;20740;-73
2022/11/02 08:50:51;;;;;;;4.80;1.87;;;14.90;97.20;;;;;;1675093;29;20755;-72
2022/11/02 08:51:42;;;;;;;6.38;1.92;;;14.90;97.20;;;;;;1675259;29;20206;-72
2022/11/02 08:52:35;;;;;;;4.37;1.90;;;14.90;97.20;;;;;;1675318;29;20216;-73
2022/11/02 08:53:26;;;;;;;4.03;1.40;;;14.90;97.20;;;;;;1675131;29;20589;-73
2022/11/02 08:54:17;;;;;;;6.10;1.70;;;15.00;97.20;;;;;;1674885;29;20601;-73
2022/11/02 08:55:08;;;;;;;7.55;1.67;;;15.00;97.20;;;;;;1675146;29;20603;-72
2022/11/02 08:56:00;;;;;;;5.73;1.57;;;15.10;97.20;;;;;;1675267;29;20206;-72
2022/11/02 08:56:51;;;;;;;5.30;1.70;;;15.10;97.20;;;;;;1675070;29;20466;-72
2022/11/02 08:57:46;;;;;;;2.93;1.23;;;15.10;97.20;;;;;;1675099;29;20683;-72
2022/11/02 08:58:38;;;;;;;4.25;1.48;;;15.10;97.20;;;;;;1675072;29;20205;-72
2022/11/02 08:59:28;;;;;;;8.88;1.55;;;15.20;97.20;;;;;;1675108;29;20206;-73
2022/11/02 09:00:23;;;;;;;3.50;2.00;;;15.20;97.20;;;;;;1678006;29;20201;-72
2022/11/02 09:01:14;;;;;;;6.07;1.98;;;15.30;97.20;;;;;;1681601;29;20582;-72
2022/11/02 09:02:05;;;;;;;6.47;1.60;;;15.30;97.20;;;;;;1681444;29;20213;-73
2022/11/02 09:03:04;;;;;;;6.93;1.80;;;15.40;97.20;;;;;;1681432;29;20619;-73
2022/11/02 09:03:56;;;;;;;4.00;1.52;;;15.40;97.20;;;;;;1681127;29;20209;-73
2022/11/02 09:04:46;;;;;;;2.42;1.10;;;15.50;97.20;;;;;;1681450;29;20209;-73
2022/11/02 09:05:40;;;;;;;7.00;1.50;;;15.50;97.20;;;;;;1680748;29;20280;-72
2022/11/02 09:06:33;;;;;;;5.60;1.40;;;15.50;97.20;;;;;;1681425;29;20205;-73
2022/11/02 09:07:23;;;;;;;3.90;1.20;;;15.50;97.20;;;;;;1681565;29;20703;-73
2022/11/02 09:08:16;;;;;;;4.27;1.53;;;15.60;97.20;;;;;;1681487;29;20672;-73
2022/11/02 09:09:07;;;;;;;3.30;0.98;;;15.60;97.20;;;;;;1681435;29;20205;-73
2022/11/02 09:09:59;;;;;;;5.13;1.67;;;15.60;97.20;;;;;;1681397;29;20209;-72
2022/11/02 09:10:51;;;;;;;9.18;1.50;;;15.60;97.20;;;;;;1681315;29;20472;-72
2022/11/02 09:11:42;;;;;;;5.03;1.77;;;15.60;97.20;;;;;;1681475;29;20244;-72
2022/11/02 09:12:33;;;;;;;5.78;1.77;;;15.60;97.20;;;;;;1681385;29;20208;-72
2022/11/02 09:13:25;;;;;;;6.20;1.63;;;15.60;97.20;;;;;;1681431;29;20212;-72
2022/11/02 09:14:15;;;;;;;8.05;1.70;;;15.60;97.20;;;;;;1681110;29;20217;-72
2022/11/02 09:15:08;;;;;;;7.37;2.17;;;15.60;97.20;;;;;;1681323;29;20229;-73
2022/11/02 09:15:59;;;;;;;4.35;1.35;;;15.60;97.20;;;;;;1680381;29;20623;-72
2022/11/02 09:16:51;;;;;;;3.80;1.35;;;15.50;97.20;;;;;;1674923;29;20575;-73
2022/11/02 09:17:44;;;;;;;3.08;1.35;;;15.50;97.20;;;;;;1674993;29;20202;-72
2022/11/02 09:18:37;;;;;;;4.30;1.60;;;15.50;97.20;;;;;;1674984;29;20567;-73
2022/11/02 09:19:28;;;;;;;5.45;1.75;;;15.40;97.20;;;;;;1674915;29;20201;-72
2022/11/02 09:20:21;;;;;;;5.27;1.60;;;15.40;97.20;;;;;;1674918;29;20206;-72
2022/11/02 09:21:12;;;;;;;4.70;1.60;;;15.40;97.20;;;;;;1675007;29;20206;-73
2022/11/02 09:22:05;;;;;;;6.07;1.53;;;15.40;97.20;;;;;;1675075;29;20208;-74
2022/11/02 09:22:56;;;;;;;7.35;1.85;;;15.40;97.20;;;;;;1674924;29;20213;-72
2022/11/02 09:23:48;;;;;;;3.70;1.57;;;15.40;97.20;;;;;;1675007;29;20292;-72
2022/11/02 09:24:39;;;;;;;8.05;1.85;;;15.40;97.20;;;;;;1674606;29;20213;-72
2022/11/02 09:25:30;;;;;;;5.43;1.80;;;15.40;97.20;;;;;;1674869;29;20242;-72
2022/11/02 09:26:21;;;;;;;9.77;1.90;;;15.40;97.20;;;;;;1675014;29;20206;-72
2022/11/02 09:27:13;;;;;;;4.70;1.60;;;15.40;97.20;;;;;;1674932;29;20213;-72
2022/11/02 09:28:04;;;;;;;3.05;1.30;;;15.40;97.20;;;;;;1674959;29;20221;-72
2022/11/02 09:28:55;;;;;;;4.23;1.43;;;15.40;97.20;;;;;;1674925;29;20208;-72
2022/11/02 09:29:46;;;;;;;3.70;1.40;;;15.40;97.20;;;;;;1674969;29;20202;-72
2022/11/02 09:30:38;;;;;;;9.00;2.50;;;15.30;97.20;;;;;;1674887;29;20226;-72
2022/11/02 09:31:30;;;;;;;5.32;1.70;;;15.30;97.20;;;;;;1674865;29;20213;-72
2022/11/02 09:32:21;;;;;;;6.57;2.40;;;15.30;97.20;;;;;;1675860;29;20280;-73
2022/11/02 09:33:13;;;;;;;4.30;1.83;;;15.30;97.20;;;;;;1674931;29;20262;-72
2022/11/02 09:34:04;;;;;;;5.00;1.60;;;15.30;97.20;;;;;;1674708;29;20273;-72
2022/11/02 09:34:55;;;;;;;3.20;1.20;;;15.30;97.20;;;;;;1674874;29;20221;-72
2022/11/02 09:35:48;;;;;;;4.73;1.93;;;15.30;97.20;;;;;;1674887;29;20216;-72
2022/11/02 09:36:39;;;;;;;5.25;1.85;;;15.30;97.20;;;;;;1674861;29;20209;-73
2022/11/02 09:37:33;;;;;;;5.70;1.73;;;15.30;97.20;;;;;;1674876;29;20288;-71
2022/11/02 09:38:23;;;;;;;6.10;1.83;;;15.30;97.20;;;;;;1674965;29;20292;-73
2022/11/02 09:39:16;;;;;;;3.77;1.47;;;15.30;97.20;;;;;;1674933;29;20785;-72
2022/11/02 09:40:09;;;;;;;5.78;1.55;;;15.30;97.20;;;;;;1674908;29;20244;-72
2022/11/02 09:41:12;;;;;;;4.35;1.45;;;15.30;97.20;;;;;;1674792;29;20233;-72
2022/11/02 09:42:10;;;;;;;4.82;1.50;;;15.30;97.20;;;;;;1674950;29;20220;-73
2022/11/02 09:43:11;;;;;;;5.43;1.70;;;15.30;97.20;;;;;;1674916;29;20233;-72
2022/11/02 09:44:07;;;;;;;5.13;1.40;;;15.30;97.20;;;;;;1674668;29;20226;-72
2022/11/02 09:45:01;;;;;;;5.20;1.40;;;15.30;97.20;;;;;;1674898;29;20214;-72
2022/11/02 09:45:57;;;;;;;3.25;1.20;;;15.30;97.20;;;;;;1674860;29;20661;-73
2022/11/02 09:46:48;;;;;;;6.43;1.70;;;15.30;97.20;;;;;;1674840;29;20695;-72
2022/11/02 09:47:44;;;;;;;3.63;1.60;;;15.30;97.20;;;;;;1676358;29;20664;-72
2022/11/02 09:48:40;;;;;;;4.47;1.35;;;15.30;97.20;;;;;;1681277;29;20216;-71
2022/11/02 09:49:31;;;;;;;4.10;1.50;;;15.30;97.20;;;;;;1681217;29;20216;-72
2022/11/02 09:50:25;;;;;;;6.70;2.13;;;15.30;97.20;;;;;;1681276;29;20207;-73
2022/11/02 09:51:20;;;;;;;3.92;1.80;;;15.30;97.20;;;;;;1681268;29;20209;-72
2022/11/02 09:52:21;;;;;;;6.47;1.60;;;15.30;97.20;;;;;;1681238;29;20259;-72
2022/11/02 09:53:19;;;;;;;3.47;1.27;;;15.30;97.20;;;;;;1681258;29;20474;-72
2022/11/02 09:54:15;;;;;;;2.33;1.30;;;15.30;97.20;;;;;;1681006;29;20970;-72
2022/11/02 09:55:14;;;;;;;6.00;1.80;;;15.30;97.20;;;;;;1681098;29;20216;-73
2022/11/02 09:56:07;;;;;;;8.38;2.10;;;15.30;97.20;;;;;;1681347;29;20551;-72
2022/11/02 09:57:00;;;;;;;4.93;1.50;;;15.30;97.20;;;;;;1681139;29;20209;-73
2022/11/02 09:57:59;;;;;;;5.47;1.65;;;15.30;97.20;;;;;;1681162;29;20691;-72
2022/11/02 09:58:57;;;;;;;5.25;1.50;;;15.30;97.20;;;;;;1681304;29;20225;-73
2022/11/02 09:59:49;;;;;;;3.50;1.60;;;15.40;97.20;;;;;;1681247;29;20229;-72
2022/11/02 10:00:44;;;;;;;4.45;1.40;;;15.40;97.20;;;;;;1681123;29;20232;-72
2022/11/02 10:01:54;;;;;;;3.58;1.35;;;15.40;97.20;;;;;;1681217;29;20256;-72
2022/11/02 10:02:54;;;;;;;5.78;1.40;;;15.40;97.20;;;;;;1681224;29;20284;-71
2022/11/02 10:04:02;;;;;;;5.55;1.77;;;15.40;97.20;;;;;;1680216;29;20217;-72
2022/11/02 10:05:05;;;;;;;4.93;1.92;;;15.40;97.20;;;;;;1674842;29;20221;-72
2022/11/02 10:06:01;;;;;;;4.00;1.50;;;15.40;97.20;;;;;;1674912;29;20214;-72
2022/11/02 10:07:00;;;;;;;5.75;1.88;;;15.50;97.20;;;;;;1674769;29;20634;-72
2022/11/02 10:08:17;;;;;;;4.97;1.40;;;15.50;97.20;;;;;;1674843;29;20210;-72
2022/11/02 10:09:16;;;;;;;3.05;1.25;;;15.50;97.20;;;;;;1674810;29;20583;-73
2022/11/02 10:10:13;;;;;;;2.13;1.20;;;15.50;97.20;;;;;;1674811;29;20231;-73
2022/11/02 10:11:18;;;;;;;5.90;1.75;;;15.50;97.20;;;;;;1674832;29;20213;-72
2022/11/02 10:12:13;;;;;;;5.28;1.48;;;15.50;97.20;;;;;;1674749;29;20214;-73
2022/11/02 10:13:18;;;;;;;5.00;1.67;;;15.50;97.20;;;;;;1674735;29;20205;-72
2022/11/02 10:14:14;;;;;;;5.93;1.90;;;15.50;97.20;;;;;;1674535;29;20210;-73
2022/11/02 10:15:11;;;;;;;6.38;1.50;;;15.50;97.20;;;;;;1674636;29;20594;-72
2022/11/02 10:16:06;;;;;;;6.00;1.52;;;15.50;97.20;;;;;;1674819;29;20289;-72
2022/11/02 10:17:04;;;;;;;3.65;1.40;;;15.50;97.20;;;;;;1675554;29;20206;-73
2022/11/02 10:17:58;;;;;;;3.25;1.40;;;15.50;97.20;;;;;;1676071;29;20210;-72
2022/11/02 10:18:52;;;;;;;5.43;1.92;;;15.50;97.20;;;;;;1676031;29;20205;-72
2022/11/02 10:19:52;;;;;;;5.72;1.30;;;15.50;97.20;;;;;;1676974;29;20212;-73
2022/11/02 10:20:45;;;;;;;2.47;1.23;;;15.50;97.20;;;;;;1675998;29;20249;-72
2022/11/02 10:21:38;;;;;;;3.15;1.30;;;15.50;97.20;;;;;;1676112;29;20284;-73
2022/11/02 10:22:32;;;;;;;7.57;1.90;;;15.50;97.20;;;;;;1675969;29;20237;-73
2022/11/02 10:23:30;;;;;;;5.45;1.75;;;15.60;97.20;;;;;;1676040;29;20202;-73
2022/11/02 10:24:32;;;;;;;5.22;1.80;;;15.50;97.20;;;;;;1675793;29;20206;-72
2022/11/02 10:25:23;;;;;;;10.40;1.90;;;15.60;97.20;;;;;;1676051;29;20210;-72
2022/11/02 10:26:19;;;;;;;8.23;2.05;;;15.60;97.20;;;;;;1676053;29;20205;-72
2022/11/02 10:27:15;;;;;;;4.93;1.58;;;15.60;97.20;;;;;;1675978;29;20268;-73
2022/11/02 10:28:14;;;;;;;8.73;1.80;;;15.60;97.20;;;;;;1676000;29;20214;-72
2022/11/02 10:29:15;;;;;;;4.68;1.48;;;15.60;97.20;;;;;;1676053;29;20236;-73
2022/11/02 10:30:12;;;;;;;2.90;1.40;;;15.60;97.20;;;;;;1676022;29;20218;-72
2022/11/02 10:31:22;;;;;;;3.05;1.13;;;15.60;97.20;;;;;;1676008;29;20210;-73
2022/11/02 10:32:15;;;;;;;3.70;1.30;;;15.60;97.20;;;;;;1675844;29;20209;-72
2022/11/02 10:33:13;;;;;;;5.85;2.20;;;15.60;97.20;;;;;;1675973;29;20214;-72
2022/11/02 10:34:18;;;;;;;4.53;1.70;;;15.60;97.20;;;;;;1675686;29;20218;-72